Terminal Aerodrome Forecast
Issued by NWS

Home | Current Version | Previous Version | Text Only | Print | Product List | Glossary On
Versions: 1 2 3 4 5 6 7 8 9 10 11 12
000
FTUS44 KOUN 231730
TAFHBR
TAF
KHBR 231730Z 2318/2418 04019G29KT P6SM SCT040 BKN250
     FM240300 05012KT P6SM BKN100 PROB30 2408/2414 5SM TSRA
      BKN030CB=

USA.gov is the U.S. government's official web portal to all federal, state and local government web resources and services.